Tiempo atmosférico en la estación meteorológica de Santander Aeropuerto, Cantabria (5 m.)



Fecha
DESCASC
Temp. máxima en grados centígrados (hora)
DESCASC
Temp. mínima en grados centígrados (hora)
DESCASC
Temp. media en grados centígrados
DESCASC
Racha de viento máxima en m/sg (hora)
DESCASC
Velocidad máxima media en intervalos de 10 minutos(hora)
DESCASC
Precipitaciones diarias en mm
DESCASC
Precipitaciones de 00:00 a 06:00 en mm
DESCASC
Precipitaciones de 06:00 a 12:00 en mm
DESCASC
Precipitaciones de 12:00 a 18:00 en mm
DESCASC
Precipitaciones de 18:00 a 24:00 en mm
DESCASC
15-08-2019 23.1 (15:00) 17.4 (23:50) 20.3 8.33 (02:20) 4.72 (02:20) 2.5 2.4 0.1 0 0
14-08-2019 26 (12:10) 13.2 (00:00) 19.6 8.33 (13:20) 5.83 (13:20) 2.5 0 0 0 2.5
13-08-2019 22.8 (14:30) 13.5 (00:00) 18.1 10.28 (15:40) 6.11 (18:30) 0 0 0 0 0
12-08-2019 22 (14:00) 14.7 (00:00) 18.3 11.67 (12:20) 8.06 (12:20) 4.2 2.1 0 2.1 0
11-08-2019 20.8 (13:50) 15.7 (00:00) 18.2 6.67 (16:10) 4.17 (21:10) 6 0.3 1.7 4 0
10-08-2019 23.1 (12:20) 18.9 (00:00) 21 8.33 (15:10) 4.72 (13:00) 0.1 0.1 0 0 0
09-08-2019 31.7 (00:10) 21.5 (00:00) 26.6 13.33 (04:50) 8.33 (04:50) -- 0 -- -- 0
08-08-2019 36.3 (19:00) 19.4 (00:00) 27.8 13.33 (19:00) 8.06 (15:30) 0 0 0 0 0
07-08-2019 26.6 (16:30) 19.4 (00:00) 23 9.72 (15:20) 7.78 (16:10) 0 0 0 0 0
06-08-2019 26.6 (16:10) 16.1 (00:00) 21.4 6.67 (13:30) 4.72 (20:10) 0 0 0 0 0
05-08-2019 25.2 (16:40) 15.1 (00:00) 20.2 8.33 (18:20) 5.28 (15:40) 0 0 0 0 0
04-08-2019 24 (11:50) 17.7 (00:00) 20.9 7.22 (18:20) 3.89 (13:20) 0 0 0 0 0
03-08-2019 25.3 (15:00) 14.8 (00:00) 20 9.72 (15:30) 5.83 (13:40) 0 0 0 0 0
02-08-2019 24.6 (16:00) 14.9 (00:00) 19.8 10.28 (14:20) 7.5 (15:00) 0 0 0 0 0
01-08-2019 22.1 (14:10) 16.2 (00:00) 19.2 6.67 (17:00) 4.44 (19:50) 0 0 0 0 0
31-07-2019 23.3 (12:40) 13.6 (00:00) 18.4 10.83 (14:30) 7.5 (15:40) 0 0 0 0 0
30-07-2019 23.2 (15:50) 16.9 (00:00) 20.1 11.67 (11:40) 7.22 (12:20) 0 0 0 0 0
29-07-2019 23.7 (10:30) 14.8 (00:00) 19.3 9.17 (20:50) 5.83 (13:00) 0 0 0 0 0
28-07-2019 24.1 (17:20) 15.8 (00:00) 20 9.17 (19:40) 5.83 (18:50) 7.5 6.7 0.8 0 0
27-07-2019 19.2 (15:50) 15.5 (00:00) 17.4 9.17 (17:20) 5.56 (17:20) 21 7 0.9 9.1 4
26-07-2019 21.6 (00:00) 17.2 (00:00) 19.4 8.33 (14:30) 6.11 (14:50) 16.7 4.7 5.6 6.3 0.1
25-07-2019 27.4 (13:50) 21.4 (00:00) 24.4 7.78 (18:50) 5.28 (19:40) 0 0 0 0 0
24-07-2019 26.9 (14:10) 20.9 (00:00) 23.9 10.28 (15:50) 7.78 (16:40) 0 0 0 0 0
23-07-2019 31.3 (11:10) 18.7 (00:00) 25 11.39 (10:10) 7.5 (10:10) 1.6 0 0 0 1.6
22-07-2019 26.5 (16:10) 21.4 (00:00) 23.9 10.28 (13:00) 7.78 (13:00) 0.6 0 0 0 0.6
21-07-2019 25 (13:20) 19.3 (00:00) 22.1 9.72 (15:10) 7.22 (15:10) 0 0 0 0 0
20-07-2019 25.2 (17:00) 17.6 (00:00) 21.4 8.33 (17:20) 5 (16:20) 0 0 0 0 0
19-07-2019 26 (14:40) 14.6 (00:00) 20.3 10.28 (15:50) 7.5 (16:10) 0 0 0 0 0

Gráficas

Temp. máximas Temp. mínimas Temp. medias Precipitaciones Rachas de viento máximas Velocidades máximas media en intervalos de 10 minutos

Datos horarios

Fecha y hora oficial Temperatura (ºC) Velocidad del viento (km/h) Dirección del viento Racha (km/h) Dirección de racha Precipitación (mm) Presión (hPa) Tendencia (hPa) Humedad (%)